Time;durP1;ratioP1;P1;durP2;ratioP2;P2;SDS_P1;SDS_P2;PMS_P1;PMS_P2;Temp;Humidity;BMP_temperature;BMP_pressure;BME280_temperature;BME280_humidity;BME280_pressure;Samples;Min_cycle;Max_cycle;Signal;HPM_P1;HPM_P2
2021/05/05 00:00:35;;;;;;;7.85;2.92;;;;;;;15.62;51.13;100184.94;5027990;28;20073;-81
2021/05/05 00:03:21;;;;;;;9.10;3.75;;;;;;;15.61;51.30;100188.03;5027899;28;20070;-80
2021/05/05 00:06:08;;;;;;;10.77;3.58;;;;;;;15.60;51.37;100190.00;5035615;28;20552;-80
2021/05/05 00:09:31;;;;;;;8.77;4.45;;;;;;;15.60;50.82;100183.72;5030550;28;20105;-80
2021/05/05 00:12:15;;;;;;;7.18;3.08;;;;;;;15.71;50.62;100168.28;5032437;28;20536;-81
2021/05/05 00:15:01;;;;;;;6.13;3.22;;;;;;;15.70;50.77;100167.47;5037169;28;20616;-78
2021/05/05 00:17:45;;;;;;;;;;;;;;;15.64;51.55;100179.13;5035974;28;20163;-80
2021/05/05 00:20:31;;;;;;;3.83;2.80;;;;;;;15.70;51.65;100172.16;5032473;28;19921;-80
2021/05/05 00:23:16;;;;;;;6.03;2.83;;;;;;;15.76;51.51;100178.94;5037089;28;20060;-79
2021/05/05 00:26:01;;;;;;;;;;;;;;;15.75;50.92;100183.63;5035399;28;20044;-79
2021/05/05 00:28:46;;;;;;;3.45;2.67;;;;;;;15.74;50.67;100167.56;5022163;28;19914;-80
2021/05/05 00:31:31;;;;;;;5.55;2.88;;;;;;;15.75;50.88;100169.91;5028108;28;20048;-80
2021/05/05 00:34:36;;;;;;;7.82;3.45;;;;;;;15.78;51.96;100176.63;5032459;28;20524;-79
2021/05/05 00:37:21;;;;;;;6.38;2.72;;;;;;;15.71;51.68;100162.78;5105336;23;20055;-78
2021/05/05 00:40:08;;;;;;;3.92;2.20;;;;;;;15.72;52.20;100161.63;5102173;28;20047;-78
2021/05/05 00:43:11;;;;;;;7.70;3.03;;;;;;;15.74;50.78;100162.88;5104266;28;20054;-78
2021/05/05 00:45:57;;;;;;;7.30;2.95;;;;;;;15.77;50.72;100144.91;5095304;28;20059;-79
2021/05/05 00:49:00;;;;;;;5.90;2.38;;;;;;;15.78;51.28;100144.53;5080845;28;20047;-78
2021/05/05 00:54:48;;;;;;;6.95;2.28;;;;;;;15.69;50.35;100143.19;5084723;28;20039;-78
2021/05/05 00:57:34;;;;;;;7.45;2.30;;;;;;;15.92;51.86;100140.44;5080223;28;20048;-78
2021/05/05 01:00:21;;;;;;;5.05;2.22;;;;;;;16.06;51.27;100141.50;5079068;28;20047;-78
2021/05/05 01:03:05;;;;;;;5.57;2.75;;;;;;;15.99;50.36;100130.41;5085648;28;20051;-78
2021/05/05 01:05:51;;;;;;;4.43;2.00;;;;;;;16.17;51.05;100126.00;5082865;28;20519;-77
2021/05/05 01:08:38;;;;;;;3.30;2.30;;;;;;;16.30;51.35;100125.81;5080635;28;20051;-78
2021/05/05 01:11:23;;;;;;;;;;;;;;;16.30;50.63;100125.81;5085730;28;20043;-78
2021/05/05 01:14:09;;;;;;;3.90;1.98;;;;;;;16.25;49.66;100130.44;5082476;28;19913;-78
2021/05/05 01:16:54;;;;;;;3.22;2.00;;;;;;;16.12;48.80;100126.31;5079773;28;20133;-79
2021/05/05 01:22:43;;;;;;;8.18;2.88;;;;;;;16.06;49.44;100124.25;5081974;28;20039;-78
2021/05/05 01:25:29;;;;;;;7.28;2.30;;;;;;;15.92;48.61;100130.28;5081075;28;20047;-77
2021/05/05 01:28:14;;;;;;;7.25;2.78;;;;;;;15.87;48.93;100127.03;5083274;28;20063;-78
2021/05/05 01:31:01;;;;;;;5.85;2.63;;;;;;;15.72;49.01;100115.81;5079218;28;20051;-78
2021/05/05 01:33:47;;;;;;;9.52;3.88;;;;;;;15.79;49.24;100118.72;5079146;28;20043;-78
2021/05/05 01:36:34;;;;;;;4.72;2.15;;;;;;;15.85;48.94;100110.19;5082331;28;20043;-77
2021/05/05 01:39:20;;;;;;;11.75;2.08;;;;;;;15.90;48.65;100110.66;5061734;28;20060;-78
2021/05/05 01:42:06;;;;;;;4.85;2.10;;;;;;;15.77;49.32;100104.56;5070426;28;20063;-78
2021/05/05 01:44:51;;;;;;;3.03;2.03;;;;;;;15.80;49.97;100103.03;5080291;28;20048;-78
2021/05/05 01:47:37;;;;;;;4.57;2.13;;;;;;;15.77;49.56;100104.56;5079080;28;20554;-78
2021/05/05 01:50:25;;;;;;;5.95;2.28;;;;;;;15.65;49.38;100103.94;5079896;28;20040;-78
2021/05/05 01:53:10;;;;;;;5.85;2.42;;;;;;;15.56;49.76;100092.41;5081344;28;20043;-78
2021/05/05 01:55:56;;;;;;;5.25;2.35;;;;;;;15.46;50.51;100092.97;5079885;28;20052;-78
2021/05/05 01:58:41;;;;;;;8.68;2.88;;;;;;;15.35;50.56;100085.34;5079975;28;20051;-77
2021/05/05 02:01:27;;;;;;;3.90;2.35;;;;;;;15.44;49.72;100079.63;5082958;28;20044;-78
2021/05/05 02:04:12;;;;;;;9.20;2.65;;;;;;;15.38;49.48;100068.22;5081721;28;20047;-78
2021/05/05 02:07:11;;;;;;;3.55;2.70;;;;;;;15.37;49.71;100077.56;5079579;28;20044;-78
2021/05/05 02:10:13;;;;;;;6.13;2.33;;;;;;;15.24;50.29;100076.13;5077562;28;20047;-78
2021/05/05 02:12:59;;;;;;;4.97;2.80;;;;;;;15.18;50.45;100071.31;5078592;28;20039;-78
2021/05/05 02:15:44;;;;;;;3.90;2.22;;;;;;;14.91;51.49;100073.13;5083605;28;20063;-78
2021/05/05 02:18:32;;;;;;;6.85;2.63;;;;;;;15.00;50.95;100068.22;5082213;28;20075;-78
2021/05/05 02:21:35;;;;;;;6.45;2.17;;;;;;;14.90;51.25;100069.59;5078710;28;20043;-77
2021/05/05 02:24:22;;;;;;;4.88;2.47;;;;;;;15.02;51.96;100070.59;5083777;28;20067;-78
2021/05/05 02:30:16;;;;;;;6.43;2.50;;;;;;;15.03;51.23;100042.88;5085140;28;20412;-78
2021/05/05 02:33:48;;;;;;;2.95;1.92;;;;;;;15.16;50.67;100047.03;5075738;28;20051;-78
2021/05/05 02:36:35;;;;;;;8.15;2.63;;;;;;;15.21;50.36;100041.25;5082010;28;20412;-78
2021/05/05 02:39:40;;;;;;;8.73;3.30;;;;;;;15.22;50.31;100045.59;5078825;28;20051;-78
2021/05/05 02:42:26;;;;;;;12.73;5.15;;;;;;;15.19;50.92;100045.50;5078142;28;20047;-78
2021/05/05 02:45:12;;;;;;;9.05;4.40;;;;;;;15.10;52.02;100053.94;5083770;28;20069;-78
2021/05/05 02:47:57;;;;;;;11.88;4.65;;;;;;;14.97;52.04;100047.84;5082016;28;20055;-78
2021/05/05 02:50:44;;;;;;;15.07;6.93;;;;;;;15.05;52.48;100048.75;5078395;28;20039;-78
2021/05/05 02:53:29;;;;;;;9.95;4.97;;;;;;;15.00;52.81;100049.06;5081492;28;20044;-78
2021/05/05 02:56:15;;;;;;;9.18;5.35;;;;;;;14.98;53.17;100040.44;5081401;28;20047;-77
2021/05/05 02:59:00;;;;;;;8.30;4.38;;;;;;;15.06;53.00;100039.41;5057967;28;20047;-78
2021/05/05 03:01:44;;;;;;;;;;;;;;;14.88;53.39;100049.22;5080713;28;20044;-78
2021/05/05 03:04:29;;;;;;;11.23;5.63;;;;;;;14.82;53.49;100047.91;5080301;28;19912;-78
2021/05/05 03:07:14;;;;;;;11.43;4.85;;;;;;;14.89;53.28;100037.88;5079129;28;20052;-77
2021/05/05 03:10:00;;;;;;;9.80;6.43;;;;;;;14.93;53.14;100043.44;5082453;28;20519;-77
2021/05/05 03:12:45;;;;;;;12.75;7.10;;;;;;;14.91;53.32;100046.53;5066333;28;20047;-79
2021/05/05 03:15:30;;;;;;;;;;;;;;;14.98;53.10;100045.91;5080016;28;20546;-77
2021/05/05 03:18:16;;;;;;;13.90;5.65;;;;;;;14.97;53.07;100042.38;5083813;28;19931;-78
2021/05/05 03:24:06;;;;;;;12.68;6.22;;;;;;;14.82;53.67;100036.97;5077157;28;20040;-77
2021/05/05 03:26:51;;;;;;;11.73;6.68;;;;;;;14.78;53.69;100034.13;5079971;28;20052;-78
2021/05/05 03:29:36;;;;;;;;;;;;;;;14.79;53.53;100032.19;5079349;28;20048;-78
2021/05/05 03:32:21;;;;;;;7.68;6.43;;;;;;;14.91;53.95;100038.31;5077443;28;19913;-78
2021/05/05 03:35:06;;;;;;;;;;;;;;;14.91;53.87;100021.09;5082161;28;20051;-78
2021/05/05 03:37:51;;;;;;;6.10;4.85;;;;;;;14.87;53.59;100025.72;5079552;28;19913;-78
2021/05/05 03:40:36;;;;;;;;;;;;;;;14.78;53.48;100016.94;5077912;28;20055;-78
2021/05/05 03:43:21;;;;;;;11.27;6.88;;;;;;;14.73;53.83;100014.50;5081164;28;19916;-78
2021/05/05 03:46:06;;;;;;;11.50;6.82;;;;;;;14.72;53.46;100019.16;5080766;28;20412;-78
2021/05/05 03:48:52;;;;;;;;;;;;;;;14.79;53.12;100016.56;5077883;28;20047;-78
2021/05/05 03:51:37;;;;;;;11.85;6.20;;;;;;;14.88;53.29;100021.84;5083197;28;20296;-78
2021/05/05 03:54:22;;;;;;;13.60;7.20;;;;;;;14.76;53.81;100027.44;5070251;28;20043;-78
2021/05/05 03:57:06;;;;;;;9.82;4.93;;;;;;;14.78;53.50;100025.16;5079021;28;20550;-77
2021/05/05 04:00:10;;;;;;;;;;;;;;;14.63;54.04;100026.00;5083389;28;20047;-78
2021/05/05 04:02:59;;;;;;;8.63;5.93;;;;;;;14.85;54.20;100022.53;5079041;28;19916;-77
2021/05/05 04:05:44;;;;;;;22.55;7.90;;;;;;;14.63;54.48;100020.53;5076306;28;20044;-78
2021/05/05 04:08:48;;;;;;;18.50;6.88;;;;;;;14.59;55.13;100019.66;5076790;28;20043;-78
2021/05/05 04:11:33;;;;;;;;;;;;;;;14.53;55.13;100030.06;5078357;28;20512;-77
2021/05/05 04:14:17;;;;;;;12.57;7.43;;;;;;;14.60;54.83;100029.44;5075341;28;19916;-78
2021/05/05 04:17:02;;;;;;;;;;;;;;;14.57;54.91;100043.84;5079722;28;20048;-78
2021/05/05 04:19:46;;;;;;;17.08;9.65;;;;;;;14.43;55.16;100039.63;5076706;28;19913;-78
2021/05/05 04:22:32;;;;;;;10.88;6.30;;;;;;;14.52;55.34;100045.72;5077101;28;20106;-77
2021/05/05 04:25:18;;;;;;;13.38;7.68;;;;;;;14.36;55.59;100050.44;5072685;28;20502;-78
2021/05/05 04:28:03;;;;;;;12.05;8.25;;;;;;;14.24;56.23;100042.31;5078106;28;20044;-78
2021/05/05 04:30:48;;;;;;;;;;;;;;;14.57;56.61;100044.66;5078121;28;20047;-78
2021/05/05 04:33:32;;;;;;;13.50;7.80;;;;;;;14.56;55.85;100048.53;5080479;28;19912;-78
2021/05/05 04:36:19;;;;;;;16.63;8.95;;;;;;;14.50;55.82;100056.22;5078069;28;20043;-78
2021/05/05 04:42:26;;;;;;;13.48;8.45;;;;;;;14.81;55.70;100060.00;5067981;28;20048;-78
2021/05/05 04:45:30;;;;;;;16.52;8.80;;;;;;;14.43;56.28;100064.25;5076498;28;20071;-78
2021/05/05 04:48:16;;;;;;;9.23;6.60;;;;;;;14.41;56.00;100063.84;5079042;28;20055;-78
2021/05/05 04:51:01;;;;;;;16.48;8.38;;;;;;;14.33;56.30;100058.50;5078570;28;20055;-78
2021/05/05 04:53:46;;;;;;;18.08;9.50;;;;;;;14.42;56.29;100054.50;5074687;28;20048;-78
2021/05/05 04:56:31;;;;;;;13.23;9.15;;;;;;;14.50;56.68;100063.63;5079264;28;20051;-83
2021/05/05 04:59:35;;;;;;;14.23;8.23;;;;;;;14.39;56.90;100068.88;5076870;28;20060;-80
2021/05/05 05:02:20;;;;;;;15.68;8.73;;;;;;;14.40;56.82;100061.47;5082135;28;20047;-80
2021/05/05 05:05:05;;;;;;;;;;;;;;;14.30;57.17;100070.97;5080463;28;20416;-81
2021/05/05 05:07:54;;;;;;;16.17;8.60;;;;;;;14.30;57.20;100065.50;5078378;28;19913;-82
2021/05/05 05:10:39;;;;;;;17.13;8.93;;;;;;;14.35;57.18;100061.69;5082619;28;20052;-80
2021/05/05 05:13:24;;;;;;;12.27;8.50;;;;;;;14.32;57.67;100073.38;5081371;28;20040;-80
2021/05/05 05:16:09;;;;;;;;;;;;;;;14.38;58.31;100072.75;5077473;28;20052;-80
2021/05/05 05:18:54;;;;;;;10.30;6.95;;;;;;;14.50;58.56;100075.38;5074944;28;19916;-80
2021/05/05 05:21:58;;;;;;;11.35;5.78;;;;;;;14.60;58.06;100075.97;5080553;28;20051;-78
2021/05/05 05:24:43;;;;;;;16.67;7.18;;;;;;;14.61;58.19;100077.56;5075277;28;20444;-78
2021/05/05 05:27:28;;;;;;;;;;;;;;;14.62;58.38;100079.16;5078196;28;20404;-78
2021/05/05 05:30:13;;;;;;;14.80;7.63;;;;;;;14.71;58.48;100077.00;5081841;28;20380;-78
2021/05/05 05:32:58;;;;;;;24.20;8.68;;;;;;;14.81;58.47;100079.16;5080049;28;20051;-78
2021/05/05 05:38:46;;;;;;;14.80;7.53;;;;;;;14.93;58.12;100068.09;5076343;28;20095;-78
2021/05/05 05:41:31;;;;;;;15.88;5.47;;;;;;;14.98;57.64;100070.53;5072506;28;20055;-79
2021/05/05 05:44:16;;;;;;;10.30;6.65;;;;;;;15.07;57.48;100070.31;5064233;28;20051;-79
2021/05/05 05:47:02;;;;;;;14.60;6.70;;;;;;;15.13;57.20;100066.94;5060609;28;20055;-78
2021/05/05 05:49:47;;;;;;;10.82;4.68;;;;;;;15.18;56.81;100063.91;5060871;28;20405;-78
2021/05/05 05:55:41;;;;;;;23.23;6.32;;;;;;;15.43;56.91;100060.84;5061910;28;20063;-78
2021/05/05 05:58:26;;;;;;;10.63;5.22;;;;;;;15.51;56.24;100043.34;5072810;28;20052;-78
2021/05/05 06:01:10;;;;;;;8.98;5.97;;;;;;;15.62;56.00;100045.16;5063660;28;20048;-78
2021/05/05 06:03:55;;;;;;;19.73;7.05;;;;;;;15.67;55.64;100052.28;5061104;28;20052;-78
2021/05/05 06:06:40;;;;;;;;;;;;;;;15.76;54.69;100037.19;5058827;28;20048;-77
2021/05/05 06:09:25;;;;;;;22.00;5.35;;;;;;;15.88;54.31;100030.72;5064338;28;19913;-78
2021/05/05 06:12:10;;;;;;;5.45;3.40;;;;;;;15.95;53.95;100025.31;5061873;28;20048;-79
2021/05/05 06:14:55;;;;;;;17.35;5.00;;;;;;;16.04;53.58;100034.13;5059992;28;20048;-78
2021/05/05 06:17:40;;;;;;;;;;;;;;;16.03;53.05;100026.25;5064127;28;20433;-78
2021/05/05 06:24:07;;;;;;;8.25;4.25;;;;;;;16.42;52.94;100032.31;5062629;28;20052;-79
2021/05/05 06:26:51;;;;;;;5.90;3.17;;;;;;;16.50;52.56;100028.50;5060343;28;20044;-79
2021/05/05 06:29:36;;;;;;;;;;;;;;;16.51;52.64;100035.56;5058989;28;20428;-78
2021/05/05 06:32:22;;;;;;;7.00;3.72;;;;;;;16.54;53.10;100024.66;5063026;28;19912;-78
2021/05/05 06:35:07;;;;;;;;;;;;;;;16.61;52.34;100033.00;5061518;28;20052;-78
2021/05/05 06:37:52;;;;;;;8.80;3.58;;;;;;;16.66;52.49;100018.94;5075587;22;19921;-81
2021/05/05 06:40:37;;;;;;;;;;;;;;;16.83;51.79;100027.78;5061848;28;20043;-80
2021/05/05 06:43:24;;;;;;;4.85;3.40;;;;;;;16.75;51.00;100018.66;5060205;28;19917;-82
2021/05/05 06:46:30;;;;;;;8.82;4.43;;;;;;;16.84;50.90;100012.88;5055450;28;20044;-79
2021/05/05 06:49:15;;;;;;;9.88;4.40;;;;;;;16.98;52.06;100021.28;5045464;28;20044;-78
2021/05/05 06:52:18;;;;;;;5.05;2.92;;;;;;;17.09;51.83;100019.44;5036897;28;20112;-78
2021/05/05 06:55:03;;;;;;;9.88;3.28;;;;;;;17.18;51.79;100022.69;5039646;28;20048;-78
2021/05/05 07:01:11;;;;;;;12.95;2.92;;;;;;;17.28;50.54;100024.75;5033912;28;20048;-77
2021/05/05 07:03:56;;;;;;;5.55;2.22;;;;;;;17.37;49.96;100021.72;5037717;28;20044;-78
2021/05/05 07:06:41;;;;;;;;;;;;;;;17.40;50.06;100021.75;5036015;28;20052;-77
2021/05/05 07:09:25;;;;;;;11.82;2.60;;;;;;;17.40;49.55;100015.47;5033622;28;19913;-77
2021/05/05 07:12:29;;;;;;;6.10;2.70;;;;;;;17.43;49.72;100000.94;5033335;28;20048;-77
2021/05/05 07:15:51;;;;;;;6.80;2.28;;;;;;;17.50;49.57;99995.53;5034507;28;20068;-77
2021/05/05 07:18:36;;;;;;;6.40;2.38;;;;;;;17.61;48.57;99996.44;5037198;28;20048;-79
2021/05/05 07:21:21;;;;;;;;;;;;;;;17.69;49.07;99989.81;5035571;28;20524;-75
2021/05/05 07:24:25;;;;;;;7.85;2.40;;;;;;;17.80;48.63;99981.66;5032877;28;19921;-78
2021/05/05 07:27:09;;;;;;;8.98;2.50;;;;;;;17.82;49.23;99987.56;5036086;28;20052;-78
2021/05/05 07:29:54;;;;;;;3.88;2.15;;;;;;;17.87;47.40;99981.72;5041537;28;20057;-80
2021/05/05 07:32:40;;;;;;;4.15;1.98;;;;;;;18.02;48.54;99985.34;5039520;28;20516;-78
2021/05/05 07:35:25;;;;;;;12.48;2.70;;;;;;;18.06;48.66;99984.22;5037803;28;20048;-80
2021/05/05 07:45:01;;;;;;;4.53;2.05;;;;;;;18.18;48.16;99975.66;5035344;28;20544;-80
2021/05/05 07:47:51;;;;;;;7.45;3.45;;;;;;;18.19;48.04;99973.66;5035382;28;20509;-80
2021/05/05 07:50:36;;;;;;;5.20;1.85;;;;;;;18.24;47.93;99971.34;5033826;28;20519;-78
2021/05/05 07:53:21;;;;;;;4.28;2.08;;;;;;;18.28;48.16;99965.88;5038526;28;20063;-77
2021/05/05 07:56:06;;;;;;;;;;;;;;;18.28;47.57;99961.16;5036322;28;20060;-79
2021/05/05 07:58:51;;;;;;;5.75;1.73;;;;;;;18.29;47.17;99954.44;5035652;28;19913;-80
2021/05/05 08:01:37;;;;;;;;;;;;;;;18.30;47.24;99963.50;5034071;28;20053;-80
2021/05/05 08:04:22;;;;;;;;;;;;;;;18.41;47.21;99947.84;5037589;28;19917;-79
2021/05/05 08:07:25;;;;;;;4.00;1.63;;;;;;;18.37;46.80;99944.28;5033412;28;19912;-79
2021/05/05 08:10:10;;;;;;;;;;;;;;;18.41;47.11;99961.59;5039086;28;20521;-78
2021/05/05 08:12:55;;;;;;;3.63;1.20;;;;;;;18.43;47.02;99964.75;5036040;28;19912;-79
2021/05/05 08:15:41;;;;;;;6.57;3.08;;;;;;;18.46;46.50;99975.00;5033818;28;20045;-78
2021/05/05 08:18:26;;;;;;;;;;;;;;;18.45;46.27;99976.16;5038904;28;20406;-79
2021/05/05 08:21:11;;;;;;;2.50;1.20;;;;;;;18.45;46.77;99958.84;5036506;28;19913;-81
2021/05/05 08:23:56;;;;;;;;;;;;;;;18.48;46.23;99955.34;5035847;28;20048;-80
2021/05/05 08:26:41;;;;;;;7.88;2.03;;;;;;;18.61;46.32;99962.09;5033444;28;19913;-80
2021/05/05 08:29:28;;;;;;;3.92;1.90;;;;;;;18.69;45.72;99958.97;5037328;28;20421;-80
2021/05/05 08:32:13;;;;;;;7.85;1.70;;;;;;;18.61;46.61;99957.38;5035154;28;20044;-80
2021/05/05 08:35:17;;;;;;;4.32;2.55;;;;;;;18.51;46.32;99958.09;5032752;28;20052;-80
2021/05/05 08:38:02;;;;;;;6.03;2.00;;;;;;;18.50;46.22;99951.00;5033160;28;20052;-79
2021/05/05 08:40:47;;;;;;;4.30;1.67;;;;;;;18.59;46.39;99953.47;5033958;28;20058;-78
2021/05/05 08:43:33;;;;;;;7.80;1.83;;;;;;;18.65;46.60;99951.88;5037137;28;20056;-77
2021/05/05 08:46:18;;;;;;;5.53;1.73;;;;;;;18.58;46.55;99955.41;5034592;28;20061;-80
2021/05/05 08:49:03;;;;;;;;;;;;;;;18.66;46.43;99957.00;5034620;28;20049;-79
2021/05/05 08:51:49;;;;;;;3.35;1.65;;;;;;;18.66;46.38;99951.50;5037572;28;19913;-79
2021/05/05 08:54:53;;;;;;;4.90;1.65;;;;;;;18.69;46.38;99947.97;5035460;28;20041;-78
2021/05/05 08:57:57;;;;;;;4.32;1.85;;;;;;;18.78;46.35;99956.66;5033003;28;20048;-79
2021/05/05 09:00:42;;;;;;;4.43;1.45;;;;;;;18.80;46.10;99948.78;5035661;28;20036;-80
2021/05/05 09:03:39;;;;;;;5.30;1.30;;;;;;;18.71;46.10;99953.09;5036652;28;20049;-81
2021/05/05 09:07:02;;;;;;;8.93;2.00;;;;;;;18.83;46.18;99957.47;5040789;28;20516;-77
2021/05/05 09:10:07;;;;;;;5.60;1.30;;;;;;;18.87;45.83;99952.75;5036786;28;20048;-77
2021/05/05 09:13:10;;;;;;;3.38;1.55;;;;;;;18.78;45.45;99950.38;5035461;28;20048;-79
2021/05/05 09:16:09;;;;;;;;;;;;;;;18.83;45.90;99950.00;5038974;28;20056;-80
2021/05/05 09:18:55;;;;;;;6.10;1.52;;;;;;;18.91;45.71;99945.28;5042813;28;19933;-80
2021/05/05 09:21:43;;;;;;;5.32;2.00;;;;;;;19.02;44.91;99937.81;5040442;28;20044;-80
2021/05/05 09:28:11;;;;;;;5.93;1.70;;;;;;;19.00;44.69;99951.19;5038079;28;20109;-79
2021/05/05 09:31:10;;;;;;;6.82;2.00;;;;;;;18.95;44.98;99946.06;5037156;28;20041;-78
2021/05/05 09:33:58;;;;;;;4.18;1.50;;;;;;;19.13;44.53;99933.91;5039946;28;20053;-79
2021/05/05 09:40:08;;;;;;;9.48;1.70;;;;;;;19.11;44.99;99939.03;5039780;28;20057;-78
2021/05/05 09:42:54;;;;;;;3.72;2.33;;;;;;;19.15;44.79;99931.53;5037018;28;20048;-78
2021/05/05 09:45:39;;;;;;;3.63;1.25;;;;;;;19.25;44.59;99931.97;5035459;28;20131;-81
2021/05/05 09:51:44;;;;;;;4.35;1.33;;;;;;;19.29;44.37;99924.47;5042219;28;19916;-79
2021/05/05 09:54:40;;;;;;;6.00;1.67;;;;;;;19.40;44.51;99928.78;5041924;28;20036;-77
2021/05/05 09:57:30;;;;;;;3.47;1.60;;;;;;;19.40;44.84;99933.56;5038847;28;20052;-79
2021/05/05 10:00:16;;;;;;;5.45;1.98;;;;;;;19.40;45.22;99915.00;5035594;28;20044;-78
2021/05/05 10:03:02;;;;;;;3.78;1.80;;;;;;;19.33;45.23;99912.28;5039155;28;20044;-79
2021/05/05 10:05:47;;;;;;;5.43;1.95;;;;;;;19.47;44.75;99920.56;5038419;28;20044;-78
2021/05/05 10:08:55;;;;;;;5.03;1.80;;;;;;;19.46;45.19;99913.47;5044455;28;20052;-80
2021/05/05 10:11:47;;;;;;;5.03;1.90;;;;;;;19.32;45.23;99913.44;5048531;28;20061;-80
2021/05/05 10:14:32;;;;;;;7.20;1.83;;;;;;;19.37;45.17;99910.28;5044436;28;20052;-81
2021/05/05 10:17:37;;;;;;;5.70;1.80;;;;;;;19.45;45.31;99909.16;5041567;28;20048;-79
2021/05/05 10:20:44;;;;;;;7.30;2.28;;;;;;;19.57;45.01;99905.97;5041215;28;20048;-78
2021/05/05 10:26:33;;;;;;;7.60;2.38;;;;;;;19.46;45.10;99902.44;5041868;28;20053;-80
2021/05/05 10:32:29;;;;;;;5.22;1.77;;;;;;;19.37;44.50;99898.47;5039428;28;20059;-80
2021/05/05 10:35:16;;;;;;;5.38;2.25;;;;;;;19.44;44.47;99893.78;5040142;28;20409;-78
2021/05/05 10:38:02;;;;;;;5.00;1.80;;;;;;;19.65;44.17;99895.75;5039326;28;20099;-78
2021/05/05 10:44:11;;;;;;;5.60;2.20;;;;;;;19.32;44.56;99882.31;5040222;28;20045;-77
2021/05/05 10:47:10;;;;;;;6.47;2.53;;;;;;;19.43;44.77;99896.91;5034641;28;20052;-81
2021/05/05 10:50:16;;;;;;;6.72;2.30;;;;;;;19.38;44.84;99891.78;5029484;28;20418;-79
2021/05/05 10:53:21;;;;;;;4.75;2.00;;;;;;;19.33;45.00;99892.97;5025481;28;20048;-79
2021/05/05 10:56:40;;;;;;;4.10;1.90;;;;;;;19.24;45.03;99873.28;5031393;28;20072;-79
2021/05/05 10:59:26;;;;;;;6.47;2.80;;;;;;;19.34;45.34;99878.00;5041844;28;20520;-80
2021/05/05 11:02:40;;;;;;;7.40;2.17;;;;;;;19.44;44.87;99876.44;5025399;28;20049;-79
2021/05/05 11:05:28;;;;;;;3.90;1.80;;;;;;;19.42;44.75;99868.53;5041151;28;20044;-78
2021/05/05 11:08:34;;;;;;;3.53;2.47;;;;;;;19.42;45.02;99865.78;5033385;28;20049;-77
2021/05/05 11:11:50;;;;;;;5.75;2.30;;;;;;;19.49;44.49;99860.31;5031641;28;20040;-78
2021/05/05 11:14:53;;;;;;;6.53;2.20;;;;;;;19.40;45.26;99865.38;5038249;28;20116;-81
2021/05/05 11:17:38;;;;;;;5.47;2.08;;;;;;;19.51;44.98;99855.16;5031875;28;20053;-79
2021/05/05 11:20:39;;;;;;;6.10;1.90;;;;;;;19.51;45.73;99846.88;5029920;28;20045;-81
2021/05/05 11:23:51;;;;;;;11.63;3.03;;;;;;;20.32;43.90;99851.38;5039291;28;20049;-76
2021/05/05 11:27:03;;;;;;;9.32;2.03;;;;;;;20.41;43.20;99853.72;5041316;28;20052;-77
2021/05/05 11:30:07;;;;;;;8.10;2.95;;;;;;;20.79;42.18;99838.88;5038647;28;20053;-76
2021/05/05 11:32:56;;;;;;;5.15;2.55;;;;;;;21.26;40.65;99842.91;5040868;28;20053;-76
2021/05/05 11:35:42;;;;;;;4.32;2.42;;;;;;;21.57;40.43;99840.22;5041333;28;20052;-79
2021/05/05 11:38:31;;;;;;;18.00;3.50;;;;;;;22.31;37.87;99839.38;5044578;28;20064;-77
2021/05/05 11:41:21;;;;;;;5.60;1.90;;;;;;;23.30;36.52;99839.91;5040318;28;20048;-77
2021/05/05 11:44:06;;;;;;;4.95;2.50;;;;;;;24.48;33.81;99828.88;5038961;28;20048;-77
2021/05/05 11:47:14;;;;;;;7.90;2.88;;;;;;;27.91;27.79;99834.09;5042160;28;20053;-78
2021/05/05 11:53:31;;;;;;;3.22;2.00;;;;;;;29.26;25.14;99830.38;5039035;28;20053;-77
2021/05/05 11:56:22;;;;;;;4.38;1.92;;;;;;;29.81;24.49;99833.28;5037432;28;20044;-77
2021/05/05 11:59:07;;;;;;;4.95;1.42;;;;;;;26.43;29.46;99828.63;5035532;28;20040;-76
2021/05/05 12:01:52;;;;;;;5.70;1.75;;;;;;;23.64;34.50;99817.50;5039045;28;20052;-77
2021/05/05 12:04:39;;;;;;;3.20;1.58;;;;;;;23.13;35.81;99821.56;5035687;28;20048;-76
2021/05/05 12:10:47;;;;;;;9.55;2.40;;;;;;;27.12;28.58;99824.81;5030850;28;20425;-77
2021/05/05 12:13:40;;;;;;;8.13;2.42;;;;;;;24.53;32.28;99800.56;5043140;28;20044;-76
2021/05/05 12:16:27;;;;;;;9.90;2.53;;;;;;;26.55;29.89;99808.34;5017226;28;20556;-76
2021/05/05 12:19:49;;;;;;;5.85;2.25;;;;;;;26.56;29.98;99815.47;5013098;28;20049;-76
2021/05/05 12:22:37;;;;;;;6.95;2.05;;;;;;;21.09;41.13;99807.84;5036116;28;20044;-78
2021/05/05 12:25:30;;;;;;;5.65;2.10;;;;;;;23.98;34.81;99806.13;5015663;28;20049;-76
2021/05/05 12:28:19;;;;;;;5.10;1.77;;;;;;;21.92;37.85;99790.03;5028616;28;20053;-77
2021/05/05 12:31:04;;;;;;;11.10;2.85;;;;;;;27.60;27.98;99812.44;5029742;28;20053;-76
2021/05/05 12:34:08;;;;;;;4.38;1.67;;;;;;;31.74;21.67;99818.75;5013078;28;20418;-78
2021/05/05 12:37:04;;;;;;;3.78;1.60;;;;;;;30.59;22.27;99822.06;5041568;22;20056;-77
2021/05/05 12:39:52;;;;;;;4.32;2.10;;;;;;;25.32;31.30;99808.59;5014973;28;20053;-77
2021/05/05 12:42:37;;;;;;;4.85;1.67;;;;;;;22.42;37.62;99797.69;4999907;28;20656;-77
2021/05/05 12:45:22;;;;;;;7.63;2.17;;;;;;;21.10;40.53;99786.50;4997997;28;20053;-75
2021/05/05 12:48:08;;;;;;;7.00;2.17;;;;;;;26.01;31.02;99808.34;5002194;28;20054;-76
2021/05/05 12:50:54;;;;;;;7.43;2.13;;;;;;;23.96;34.53;99798.22;5005836;28;20041;-77
2021/05/05 12:53:58;;;;;;;6.40;2.58;;;;;;;25.79;31.97;99806.19;5017018;28;20053;-75
2021/05/05 12:56:45;;;;;;;7.80;2.03;;;;;;;29.19;25.87;99810.31;5020715;28;20117;-77
2021/05/05 12:59:30;;;;;;;6.75;1.88;;;;;;;25.84;30.74;99793.69;5018634;28;20045;-76
2021/05/05 13:02:22;;;;;;;4.82;1.70;;;;;;;23.71;35.61;99800.72;5016846;28;20411;-76
2021/05/05 13:05:26;;;;;;;6.43;2.30;;;;;;;24.15;35.09;99796.63;5020043;28;20069;-76
2021/05/05 13:08:57;;;;;;;9.07;1.73;;;;;;;24.96;32.97;99797.59;5017470;28;20041;-76
2021/05/05 13:11:46;;;;;;;5.07;2.28;;;;;;;21.54;40.24;99777.41;5019867;28;20408;-77
2021/05/05 13:14:48;;;;;;;9.70;2.03;;;;;;;20.37;43.03;99778.38;5017054;28;20045;-77
2021/05/05 13:18:00;;;;;;;9.43;2.60;;;;;;;21.16;39.82;99777.41;5020598;28;20499;-76
2021/05/05 13:33:03;;;;;;;8.20;2.67;;;;;;;24.45;34.63;99788.06;5018565;28;20164;-75
2021/05/05 13:36:06;;;;;;;13.80;2.90;;;;;;;24.82;33.70;99800.69;5021650;28;20048;-75
2021/05/05 13:38:51;;;;;;;7.03;2.67;;;;;;;24.84;33.24;99792.69;4999685;28;20041;-77
2021/05/05 13:41:37;;;;;;;12.13;2.80;;;;;;;25.11;33.05;99787.66;5006789;28;20046;-76
2021/05/05 13:44:32;;;;;;;8.93;2.97;;;;;;;21.40;41.97;99775.59;5013388;28;20062;-75
2021/05/05 13:47:45;;;;;;;6.30;2.40;;;;;;;21.68;41.69;99782.81;5008253;28;20053;-76
2021/05/05 13:50:30;;;;;;;16.17;3.65;;;;;;;21.21;42.64;99771.44;5011600;28;20056;-76
2021/05/05 13:53:34;;;;;;;8.10;2.90;;;;;;;21.61;41.19;99760.72;5005787;28;20508;-77
2021/05/05 13:56:22;;;;;;;11.30;3.33;;;;;;;21.12;42.63;99762.81;4996467;28;20408;-77
2021/05/05 13:59:07;;;;;;;6.65;2.53;;;;;;;20.54;43.26;99765.66;5000384;28;20053;-77
2021/05/05 14:01:52;;;;;;;8.40;3.20;;;;;;;20.57;43.03;99764.84;4998307;28;20045;-77
2021/05/05 14:04:37;;;;;;;4.20;2.53;;;;;;;21.46;40.65;99764.84;4996194;28;20049;-77
2021/05/05 14:07:41;;;;;;;7.78;3.60;;;;;;;21.61;40.42;99766.25;5000503;28;20049;-76
2021/05/05 14:16:56;;;;;;;9.25;3.25;;;;;;;20.26;44.02;99763.84;4997798;28;20138;-78
2021/05/05 14:19:42;;;;;;;12.98;3.85;;;;;;;20.20;44.49;99763.47;5000722;28;20065;-76
2021/05/05 14:25:31;;;;;;;6.80;3.15;;;;;;;20.03;45.13;99753.31;4995776;28;20065;-77
2021/05/05 14:28:17;;;;;;;13.52;3.35;;;;;;;19.99;45.13;99758.84;4999616;28;20265;-78
2021/05/05 14:31:02;;;;;;;4.80;2.90;;;;;;;20.11;44.87;99754.06;4998008;28;20069;-77
2021/05/05 14:33:47;;;;;;;9.32;2.65;;;;;;;19.82;45.30;99750.63;4995742;28;20057;-78
2021/05/05 14:36:33;;;;;;;13.20;3.50;;;;;;;19.82;45.51;99742.38;5007571;28;20048;-76
2021/05/05 14:39:37;;;;;;;9.27;3.88;;;;;;;20.13;44.76;99746.16;5004681;28;20110;-77
2021/05/05 14:42:26;;;;;;;11.98;3.03;;;;;;;20.86;42.85;99747.63;5000051;28;20045;-78
2021/05/05 14:45:28;;;;;;;15.55;3.05;;;;;;;20.50;43.93;99738.06;4998266;28;20114;-77